Time;durP1;ratioP1;P1;durP2;ratioP2;P2;SDS_P1;SDS_P2;PMS_P1;PMS_P2;Temp;Humidity;BMP_temperature;BMP_pressure;BME280_temperature;BME280_humidity;BME280_pressure;Samples;Min_cycle;Max_cycle;Signal;HPM_P1;HPM_P2
2024/02/25 00:02:06;;;;;;;;;;;5.80;99.90;;;;;;4970753;28;19918;-84
2024/02/25 00:04:32;;;;;;;;;;;5.80;96.40;;;;;;4971575;28;20424;-83
2024/02/25 00:06:57;;;;;;;;;;;5.90;1.00;;;;;;4973524;28;19914;-82
2024/02/25 00:09:23;;;;;;;;;;;5.90;99.90;;;;;;4976090;28;19918;-85
2024/02/25 00:11:48;;;;;;;;;;;5.90;99.90;;;;;;4984948;28;22938;-85
2024/02/25 00:14:14;;;;;;;;;;;6.00;1.00;;;;;;4974115;28;19918;-82
2024/02/25 00:16:42;;;;;;;;;;;6.00;1.00;;;;;;4969476;28;20353;-82
2024/02/25 00:19:07;;;;;;;;;;;6.00;56.40;;;;;;4976618;28;19929;-83
2024/02/25 00:21:33;;;;;;;;;;;6.10;99.90;;;;;;4968192;28;19969;-81
2024/02/25 00:23:58;;;;;;;;;;;6.10;99.90;;;;;;4967856;28;19938;-83
2024/02/25 00:26:24;;;;;;;;;;;6.10;1.00;;;;;;4963991;28;19925;-82
2024/02/25 00:28:49;;;;;;;;;;;6.00;1.00;;;;;;4962995;28;19929;-83
2024/02/25 00:31:15;;;;;;;;;;;6.10;1.00;;;;;;4972134;28;20349;-83
2024/02/25 00:33:40;;;;;;;;;;;6.00;1.00;;;;;;4969648;28;20751;-82
2024/02/25 00:36:09;;;;;;;;;;;6.00;1.00;;;;;;4972864;28;19918;-82
2024/02/25 00:38:35;;;;;;;;;;;6.00;1.00;;;;;;4971375;28;19929;-82
2024/02/25 00:41:00;;;;;;;;;;;6.10;1.00;;;;;;4962617;28;19914;-82
2024/02/25 00:43:26;;;;;;;;;;;6.10;1.00;;;;;;4969040;28;19929;-82
2024/02/25 00:45:51;;;;;;;;;;;6.20;99.90;;;;;;4969716;28;19918;-83
2024/02/25 00:48:17;;;;;;;;;;;6.20;99.90;;;;;;4964135;28;19914;-84
2024/02/25 00:50:42;;;;;;;;;;;6.20;99.90;;;;;;4972249;28;19921;-83
2024/02/25 00:53:08;;;;;;;;;;;6.30;1.00;;;;;;4968838;28;20287;-82
2024/02/25 00:55:33;;;;;;;;;;;6.30;1.00;;;;;;4962422;28;19922;-85
2024/02/25 00:57:59;;;;;;;;;;;6.30;97.60;;;;;;4972219;28;19993;-85
2024/02/25 01:00:24;;;;;;;;;;;6.40;1.00;;;;;;4968794;28;19915;-83
2024/02/25 01:02:49;;;;;;;;;;;6.50;99.90;;;;;;4969521;28;20440;-80
2024/02/25 01:05:16;;;;;;;;;;;6.50;1.00;;;;;;4968866;28;19918;-82
2024/02/25 01:07:43;;;;;;;;;;;6.60;99.90;;;;;;4965927;28;20312;-83
2024/02/25 01:10:08;;;;;;;;;;;6.60;99.90;;;;;;4968012;28;19921;-83
2024/02/25 01:12:34;;;;;;;;;;;6.70;37.70;;;;;;4968856;28;19913;-83
2024/02/25 01:14:59;;;;;;;;;;;6.70;1.00;;;;;;4966333;28;20547;-84
2024/02/25 01:17:25;;;;;;;;;;;6.70;1.00;;;;;;4972014;28;19925;-84
2024/02/25 01:19:50;;;;;;;;;;;6.70;1.00;;;;;;4964397;28;19922;-83
2024/02/25 01:22:15;;;;;;;;;;;6.70;1.00;;;;;;4969125;28;19930;-84
2024/02/25 01:24:41;;;;;;;;;;;6.70;1.00;;;;;;4968879;28;19925;-84
2024/02/25 01:27:06;;;;;;;;;;;6.70;1.00;;;;;;4967405;28;19926;-84
2024/02/25 01:29:32;;;;;;;;;;;6.70;1.00;;;;;;4969788;28;19978;-83
2024/02/25 01:31:57;;;;;;;;;;;6.80;1.00;;;;;;4965965;28;19920;-84
2024/02/25 01:34:27;;;;;;;;;;;6.70;1.00;;;;;;4965560;28;19964;-82
2024/02/25 01:36:53;;;;;;;;;;;6.70;1.00;;;;;;4969346;28;20365;-84
2024/02/25 01:39:19;;;;;;;;;;;6.70;1.00;;;;;;4968261;28;19954;-84
2024/02/25 01:41:44;;;;;;;;;;;6.60;1.00;;;;;;4969115;28;20059;-85
2024/02/25 01:44:11;;;;;;;;;;;6.60;1.00;;;;;;4967918;28;19925;-82
2024/02/25 01:46:36;;;;;;;;;;;6.60;1.00;;;;;;4961755;28;19918;-82
2024/02/25 01:49:02;;;;;;;;;;;6.60;50.40;;;;;;4972082;28;20395;-82
2024/02/25 01:51:28;;;;;;;;;;;6.70;7.80;;;;;;4973082;28;19914;-84
2024/02/25 01:53:53;;;;;;;;;;;6.70;37.90;;;;;;4959562;28;20805;-83
2024/02/25 01:56:19;;;;;;;;;;;6.70;35.40;;;;;;4973980;28;20054;-83
2024/02/25 01:58:46;;;;;;;;;;;6.70;99.90;;;;;;4968308;28;20013;-84
2024/02/25 02:01:14;;;;;;;;;;;6.70;99.90;;;;;;4967168;28;19917;-84
2024/02/25 02:03:40;;;;;;;;;;;6.70;99.90;;;;;;4974648;28;19997;-85
2024/02/25 02:06:06;;;;;;;;;;;6.70;99.90;;;;;;4967821;28;19986;-84
2024/02/25 02:08:32;;;;;;;;;;;6.70;1.00;;;;;;4967186;28;19914;-84
2024/02/25 02:10:58;;;;;;;;;;;6.70;1.00;;;;;;4968125;28;19922;-85
2024/02/25 02:13:23;;;;;;;;;;;6.70;1.00;;;;;;4970315;28;19928;-83
2024/02/25 02:15:49;;;;;;;;;;;6.70;1.00;;;;;;5008225;23;19939;-82
2024/02/25 02:18:16;;;;;;;;;;;6.70;1.00;;;;;;5037874;28;19944;-82
2024/02/25 02:20:44;;;;;;;;;;;6.70;99.90;;;;;;5034961;28;19913;-81
2024/02/25 02:23:10;;;;;;;;;;;6.70;99.90;;;;;;5023454;28;19924;-82
2024/02/25 02:25:35;;;;;;;;;;;6.70;99.90;;;;;;5026824;28;19921;-82
2024/02/25 02:28:01;;;;;;;;;;;6.70;99.90;;;;;;5005360;28;19919;-82
2024/02/25 02:30:26;;;;;;;;;;;6.70;43.00;;;;;;5024413;28;19917;-81
2024/02/25 02:32:52;;;;;;;;;;;6.80;1.00;;;;;;5022944;28;20397;-82
2024/02/25 02:35:17;;;;;;;;;;;6.80;1.00;;;;;;5018047;28;20008;-83
2024/02/25 02:37:43;;;;;;;;;;;6.80;1.00;;;;;;5019038;28;19996;-83
2024/02/25 02:40:08;;;;;;;;;;;6.80;1.00;;;;;;5017780;28;19913;-81
2024/02/25 02:42:34;;;;;;;;;;;6.80;1.00;;;;;;5017583;28;19921;-82
2024/02/25 02:45:00;;;;;;;;;;;6.80;1.00;;;;;;5016838;28;19975;-83
2024/02/25 02:47:26;;;;;;;;;;;6.80;1.00;;;;;;5020913;28;19925;-81
2024/02/25 02:49:52;;;;;;;;;;;6.80;1.00;;;;;;5022532;28;19928;-81
2024/02/25 02:52:18;;;;;;;;;;;6.80;1.00;;;;;;5008538;28;19925;-82
2024/02/25 02:54:44;;;;;;;;;;;6.70;1.00;;;;;;5020950;28;20359;-82
2024/02/25 02:57:09;;;;;;;;;;;6.70;1.30;;;;;;5017511;28;19975;-83
2024/02/25 02:59:35;;;;;;;;;;;6.70;99.90;;;;;;5018718;28;19914;-82
2024/02/25 03:02:01;;;;;;;;;;;6.70;20.40;;;;;;5022609;28;19921;-84
2024/02/25 03:04:27;;;;;;;;;;;6.70;99.90;;;;;;5019189;28;19952;-83
2024/02/25 03:06:52;;;;;;;;;;;6.70;99.90;;;;;;5014667;28;20477;-83
2024/02/25 03:09:18;;;;;;;;;;;6.70;99.90;;;;;;5033014;28;19913;-82
2024/02/25 03:11:43;;;;;;;;;;;6.70;99.90;;;;;;5035017;28;19917;-83
2024/02/25 03:14:08;;;;;;;;;;;6.70;99.90;;;;;;5032252;28;20398;-83
2024/02/25 03:16:37;;;;;;;;;;;6.70;99.90;;;;;;5029530;28;19971;-83
2024/02/25 03:19:03;;;;;;;;;;;6.70;99.90;;;;;;5032121;28;19921;-82
2024/02/25 03:21:28;;;;;;;;;;;6.70;99.90;;;;;;5032189;28;19999;-81
2024/02/25 03:23:53;;;;;;;;;;;6.70;99.90;;;;;;5028567;28;19924;-83
2024/02/25 03:26:19;;;;;;;;;;;6.70;99.90;;;;;;5016517;28;19913;-82
2024/02/25 03:28:45;;;;;;;;;;;6.70;99.90;;;;;;5016280;28;20311;-82
2024/02/25 03:31:10;;;;;;;;;;;6.70;1.00;;;;;;5035335;28;19913;-83
2024/02/25 03:33:36;;;;;;;;;;;6.60;99.90;;;;;;5029092;28;20024;-83
2024/02/25 03:36:02;;;;;;;;;;;6.60;1.00;;;;;;5006437;28;19913;-82
2024/02/25 03:38:28;;;;;;;;;;;6.60;1.00;;;;;;5031164;28;19913;-84
2024/02/25 03:40:53;;;;;;;;;;;6.50;55.50;;;;;;5029343;28;19936;-82
2024/02/25 03:43:19;;;;;;;;;;;6.50;53.90;;;;;;5022128;28;20004;-82
2024/02/25 03:45:44;;;;;;;;;;;6.40;54.30;;;;;;5029699;28;19980;-83
2024/02/25 03:48:11;;;;;;;;;;;6.40;74.20;;;;;;5031138;28;19914;-82
2024/02/25 03:50:36;;;;;;;;;;;6.40;99.90;;;;;;5023290;28;20040;-82
2024/02/25 03:53:02;;;;;;;;;;;6.40;99.90;;;;;;5028226;28;19913;-82
2024/02/25 03:55:28;;;;;;;;;;;6.40;99.90;;;;;;5030394;28;20010;-82
2024/02/25 03:57:55;;;;;;;;;;;6.40;99.90;;;;;;5029847;28;19913;-83
2024/02/25 04:00:21;;;;;;;;;;;6.40;99.90;;;;;;5025592;28;20327;-81
2024/02/25 04:02:46;;;;;;;;;;;6.40;99.90;;;;;;5024796;28;19917;-82
2024/02/25 04:05:13;;;;;;;;;;;6.40;99.90;;;;;;5029046;28;20402;-82
2024/02/25 04:07:38;;;;;;;;;;;6.40;99.90;;;;;;5020804;28;19920;-82
2024/02/25 04:10:04;;;;;;;;;;;6.40;99.90;;;;;;5026471;28;20341;-82
2024/02/25 04:12:30;;;;;;;;;;;6.40;99.90;;;;;;5031112;28;20008;-83
2024/02/25 04:14:55;;;;;;;;;;;6.40;99.90;;;;;;5025968;28;20012;-81
2024/02/25 04:17:23;;;;;;;;;;;6.40;99.90;;;;;;5030760;28;19921;-80
2024/02/25 04:19:51;;;;;;;;;;;6.40;99.90;;;;;;5028854;28;19928;-82
2024/02/25 04:22:16;;;;;;;;;;;6.40;99.90;;;;;;5029986;28;19918;-84
2024/02/25 04:24:42;;;;;;;;;;;6.40;99.90;;;;;;5035218;28;19924;-82
2024/02/25 04:27:07;;;;;;;;;;;6.40;99.90;;;;;;5025277;28;19965;-83
2024/02/25 04:29:33;;;;;;;;;;;6.40;99.90;;;;;;5028952;28;19917;-84
2024/02/25 04:31:58;;;;;;;;;;;6.40;99.90;;;;;;5035190;28;19913;-83
2024/02/25 04:34:24;;;;;;;;;;;6.40;99.90;;;;;;5035558;28;20026;-83
2024/02/25 04:36:49;;;;;;;;;;;6.40;99.90;;;;;;5034293;28;19918;-84
2024/02/25 04:39:15;;;;;;;;;;;6.40;99.90;;;;;;5034381;28;19956;-84
2024/02/25 04:41:40;;;;;;;;;;;6.40;99.90;;;;;;5014986;28;19913;-83
2024/02/25 04:44:08;;;;;;;;;;;6.40;99.90;;;;;;5030430;28;19928;-82
2024/02/25 04:46:33;;;;;;;;;;;6.40;99.90;;;;;;5028922;28;19914;-82
2024/02/25 04:48:59;;;;;;;;;;;6.40;99.90;;;;;;5031366;28;19966;-81
2024/02/25 04:51:24;;;;;;;;;;;6.40;99.90;;;;;;5031552;28;20015;-84
2024/02/25 04:53:56;;;;;;;;;;;6.40;99.90;;;;;;5027597;28;19913;-84
2024/02/25 04:56:21;;;;;;;;;;;6.40;99.90;;;;;;5026507;28;20542;-82
2024/02/25 04:58:47;;;;;;;;;;;6.40;99.90;;;;;;5005643;28;19917;-81
2024/02/25 05:01:12;;;;;;;;;;;6.40;99.90;;;;;;5024504;28;19924;-83
2024/02/25 05:03:38;;;;;;;;;;;6.40;99.90;;;;;;5023940;28;19999;-83
2024/02/25 05:06:04;;;;;;;;;;;6.40;99.90;;;;;;5022442;28;20432;-84
2024/02/25 05:08:29;;;;;;;;;;;6.40;99.90;;;;;;5016632;28;19949;-83
2024/02/25 05:10:55;;;;;;;;;;;6.30;99.90;;;;;;5019176;28;19921;-82
2024/02/25 05:13:20;;;;;;;;;;;6.30;99.90;;;;;;5020880;28;19921;-82
2024/02/25 05:15:46;;;;;;;;;;;6.30;99.90;;;;;;5023820;28;19925;-82
2024/02/25 05:18:11;;;;;;;;;;;6.30;99.90;;;;;;5023010;28;20367;-82
2024/02/25 05:20:37;;;;;;;;;;;6.30;99.90;;;;;;5020520;28;20007;-83
2024/02/25 05:23:02;;;;;;;;;;;6.30;99.90;;;;;;5016981;28;19918;-83
2024/02/25 05:25:28;;;;;;;;;;;6.30;99.90;;;;;;5021616;28;19960;-82
2024/02/25 05:27:53;;;;;;;;;;;6.30;99.90;;;;;;5016462;28;19914;-80
2024/02/25 05:30:19;;;;;;;;;;;6.30;99.90;;;;;;5017680;28;19913;-82
2024/02/25 05:32:44;;;;;;;;;;;6.30;99.90;;;;;;5014579;28;20004;-83
2024/02/25 05:35:09;;;;;;;;;;;6.30;99.90;;;;;;5014752;28;20402;-82
2024/02/25 05:37:35;;;;;;;;;;;6.30;99.90;;;;;;5020747;28;19974;-81
2024/02/25 05:40:00;;;;;;;;;;;6.30;99.90;;;;;;5015490;28;19953;-82
2024/02/25 05:42:26;;;;;;;;;;;6.30;99.90;;;;;;5012963;28;20452;-81
2024/02/25 05:44:53;;;;;;;;;;;6.30;99.90;;;;;;5004921;28;19917;-82
2024/02/25 05:47:19;;;;;;;;;;;6.30;99.90;;;;;;5015623;28;19924;-82
2024/02/25 05:49:45;;;;;;;;;;;6.30;99.90;;;;;;5021234;28;20402;-84
2024/02/25 05:52:10;;;;;;;;;;;6.30;99.90;;;;;;5025547;28;20039;-83
2024/02/25 05:54:36;;;;;;;;;;;6.30;99.90;;;;;;5025451;28;19980;-84
2024/02/25 05:57:01;;;;;;;;;;;6.30;99.90;;;;;;5023218;28;19921;-82
2024/02/25 05:59:26;;;;;;;;;;;6.30;99.90;;;;;;5024266;28;20376;-83
2024/02/25 06:01:52;;;;;;;;;;;6.20;99.90;;;;;;5021142;28;19984;-83
2024/02/25 06:04:19;;;;;;;;;;;6.20;99.90;;;;;;5030511;28;19925;-84
2024/02/25 06:06:54;;;;;;;;;;;6.20;99.90;;;;;;5028537;28;19917;-82
2024/02/25 06:09:20;;;;;;;;;;;6.20;99.90;;;;;;5030748;28;19913;-83
2024/02/25 06:11:47;;;;;;;;;;;6.20;99.90;;;;;;5029646;28;20020;-83
2024/02/25 06:14:12;;;;;;;;;;;6.20;99.90;;;;;;5030088;28;19914;-85
2024/02/25 06:16:38;;;;;;;;;;;6.20;99.90;;;;;;5028964;28;20486;-84
2024/02/25 06:19:03;;;;;;;;;;;6.20;99.90;;;;;;5025749;28;19980;-82
2024/02/25 06:21:29;;;;;;;;;;;6.20;99.90;;;;;;5027188;28;20403;-81
2024/02/25 06:23:54;;;;;;;;;;;6.20;99.90;;;;;;5013319;28;20253;-81
2024/02/25 06:26:20;;;;;;;;;;;6.20;99.90;;;;;;5024923;28;20008;-82
2024/02/25 06:28:45;;;;;;;;;;;6.20;99.90;;;;;;5031147;28;19992;-82
2024/02/25 06:31:11;;;;;;;;;;;6.20;99.90;;;;;;5027762;28;19913;-83
2024/02/25 06:33:36;;;;;;;;;;;6.20;99.90;;;;;;5027813;28;19929;-82
2024/02/25 06:36:02;;;;;;;;;;;6.20;99.90;;;;;;5021752;28;20384;-81
2024/02/25 06:38:27;;;;;;;;;;;6.30;99.90;;;;;;5022924;28;19917;-84
2024/02/25 06:40:53;;;;;;;;;;;6.20;99.90;;;;;;5020613;28;19914;-82
2024/02/25 06:43:18;;;;;;;;;;;6.30;99.90;;;;;;5027014;28;20022;-82
2024/02/25 06:45:44;;;;;;;;;;;6.30;99.90;;;;;;5021641;28;19920;-82
2024/02/25 06:48:09;;;;;;;;;;;6.40;99.90;;;;;;5007671;28;20047;-82
2024/02/25 06:50:35;;;;;;;;;;;6.40;99.90;;;;;;5004320;28;20275;-82
2024/02/25 06:53:01;;;;;;;;;;;6.50;99.90;;;;;;5007872;28;20397;-83
2024/02/25 06:55:26;;;;;;;;;;;6.70;18.80;;;;;;5020752;28;20014;-81
2024/02/25 06:57:52;;;;;;;;;;;6.90;1.00;;;;;;5023341;28;19913;-82
2024/02/25 07:00:17;;;;;;;;;;;7.10;99.90;;;;;;5023692;28;20065;-82
2024/02/25 07:02:43;;;;;;;;;;;7.20;99.90;;;;;;5024252;28;20375;-82
2024/02/25 07:05:08;;;;;;;;;;;7.40;1.00;;;;;;5018330;28;19960;-83
2024/02/25 07:07:34;;;;;;;;;;;7.50;99.90;;;;;;5027879;28;19928;-82
2024/02/25 07:09:59;;;;;;;;;;;7.60;1.00;;;;;;5018588;28;19913;-82
2024/02/25 07:12:25;;;;;;;;;;;7.60;1.00;;;;;;5021106;28;19913;-84
2024/02/25 07:14:51;;;;;;;;;;;7.70;99.90;;;;;;5029359;28;19913;-81
2024/02/25 07:17:16;;;;;;;;;;;7.80;99.90;;;;;;5023885;28;21812;-83
2024/02/25 07:19:42;;;;;;;;;;;7.90;11.70;;;;;;5023306;28;19913;-84
2024/02/25 07:22:08;;;;;;;;;;;8.00;1.00;;;;;;5023725;28;19921;-83
2024/02/25 07:24:33;;;;;;;;;;;8.20;99.90;;;;;;5002476;28;19918;-85
2024/02/25 07:26:59;;;;;;;;;;;8.30;87.80;;;;;;5016257;28;19968;-86
2024/02/25 07:29:24;;;;;;;;;;;8.40;1.00;;;;;;5003753;28;19921;-85
2024/02/25 07:31:50;;;;;;;;;;;8.30;99.90;;;;;;5020066;28;19913;-84
2024/02/25 07:34:15;;;;;;;;;;;8.30;99.90;;;;;;5019155;28;19947;-84
2024/02/25 07:36:41;;;;;;;;;;;8.20;99.90;;;;;;5018385;28;19920;-83
2024/02/25 07:39:07;;;;;;;;;;;8.20;1.00;;;;;;5016654;28;19920;-84
2024/02/25 07:41:32;;;;;;;;;;;8.20;1.00;;;;;;5020396;28;19913;-86
2024/02/25 07:43:58;;;;;;;;;;;8.20;1.00;;;;;;5002949;28;19922;-84
2024/02/25 07:46:25;;;;;;;;;;;8.30;99.90;;;;;;5019738;28;20370;-83
2024/02/25 07:48:51;;;;;;;;;;;8.30;99.90;;;;;;5021359;28;19913;-83
2024/02/25 07:51:16;;;;;;;;;;;8.40;99.90;;;;;;5015765;28;19939;-83
2024/02/25 07:53:42;;;;;;;;;;;8.40;99.90;;;;;;5033583;28;19913;-83
2024/02/25 07:56:07;;;;;;;;;;;8.50;99.90;;;;;;5017436;28;19913;-83
2024/02/25 07:58:33;;;;;;;;;;;8.50;99.90;;;;;;5034575;28;19922;-84
2024/02/25 08:00:58;;;;;;;;;;;8.70;99.90;;;;;;5034608;28;20154;-83
2024/02/25 08:03:24;;;;;;;;;;;8.80;1.00;;;;;;5035077;28;19917;-83
2024/02/25 08:05:49;;;;;;;;;;;8.90;1.00;;;;;;5030898;28;19913;-84
2024/02/25 08:08:15;;;;;;;;;;;9.10;1.00;;;;;;5034539;28;20000;-83
2024/02/25 08:10:41;;;;;;;;;;;9.30;99.90;;;;;;5036498;28;19921;-83
2024/02/25 08:13:06;;;;;;;;;;;9.50;99.90;;;;;;5033982;28;20032;-82
2024/02/25 08:15:32;;;;;;;;;;;9.80;99.90;;;;;;5034799;28;20019;-84
2024/02/25 08:17:57;;;;;;;;;;;10.20;97.50;;;;;;5032352;28;19914;-81
2024/02/25 08:20:23;;;;;;;;;;;10.70;1.00;;;;;;5015153;28;19920;-83
2024/02/25 08:22:49;;;;;;;;;;;11.00;1.00;;;;;;5036225;28;20014;-83
2024/02/25 08:25:14;;;;;;;;;;;11.00;1.00;;;;;;5034345;28;19925;-83
2024/02/25 08:27:40;;;;;;;;;;;11.10;1.00;;;;;;5031226;28;19920;-82
2024/02/25 08:30:05;;;;;;;;;;;11.80;1.00;;;;;;5019781;28;19925;-83
2024/02/25 08:32:32;;;;;;;;;;;15.00;1.00;;;;;;5017622;28;19922;-82
2024/02/25 08:34:57;;;;;;;;;;;19.30;99.90;;;;;;5018373;28;19985;-81
2024/02/25 08:37:27;;;;;;;;;;;20.30;99.90;;;;;;5018873;28;19968;-82
2024/02/25 08:39:53;;;;;;;;;;;20.30;99.90;;;;;;5018813;28;19997;-81
2024/02/25 08:42:18;;;;;;;;;;;19.50;99.90;;;;;;5022340;28;20007;-81
2024/02/25 08:44:44;;;;;;;;;;;18.60;99.90;;;;;;5019127;28;19960;-81
2024/02/25 08:47:10;;;;;;;;;;;17.70;99.90;;;;;;5016191;28;19924;-81
2024/02/25 08:49:36;;;;;;;;;;;16.80;99.90;;;;;;5024018;28;20461;-81
2024/02/25 08:52:02;;;;;;;;;;;18.50;99.90;;;;;;5021164;28;19913;-81
2024/02/25 08:54:27;;;;;;;;;;;21.00;99.90;;;;;;5021028;28;19913;-82
2024/02/25 08:56:54;;;;;;;;;;;22.60;99.90;;;;;;5022117;28;20033;-81
2024/02/25 08:59:19;;;;;;;;;;;22.70;99.90;;;;;;5021628;28;19940;-80
2024/02/25 09:01:45;;;;;;;;;;;22.10;99.90;;;;;;5022232;28;19913;-81
2024/02/25 09:04:12;;;;;;;;;;;21.50;99.90;;;;;;5026727;28;19988;-81
2024/02/25 09:06:38;;;;;;;;;;;20.30;99.90;;;;;;5018448;28;19928;-79
2024/02/25 09:09:04;;;;;;;;;;;19.30;99.90;;;;;;5019183;28;19913;-80
2024/02/25 09:11:29;;;;;;;;;;;18.40;99.90;;;;;;5020053;28;20323;-79
2024/02/25 09:13:55;;;;;;;;;;;17.70;99.90;;;;;;5018308;28;20001;-80
2024/02/25 09:16:21;;;;;;;;;;;17.20;99.90;;;;;;5017106;28;19925;-80
2024/02/25 09:18:47;;;;;;;;;;;17.20;99.90;;;;;;5012736;28;20160;-80
2024/02/25 09:21:12;;;;;;;;;;;17.50;99.90;;;;;;5021793;28;19921;-81
2024/02/25 09:23:38;;;;;;;;;;;17.50;99.90;;;;;;5018738;28;20387;-80
2024/02/25 09:26:07;;;;;;;;;;;17.80;99.90;;;;;;5009484;28;20805;-82
2024/02/25 09:28:33;;;;;;;;;;;17.50;99.90;;;;;;5021909;28;20291;-81
2024/02/25 09:30:59;;;;;;;;;;;18.00;99.90;;;;;;5012873;28;19921;-79
2024/02/25 09:33:26;;;;;;;;;;;19.30;99.90;;;;;;5025159;28;19920;-81
2024/02/25 09:35:51;;;;;;;;;;;20.20;99.90;;;;;;5016697;28;19913;-81
2024/02/25 09:38:17;;;;;;;;;;;21.80;99.90;;;;;;5015162;28;20360;-81
2024/02/25 09:40:43;;;;;;;;;;;21.70;99.90;;;;;;5018562;28;20379;-80
2024/02/25 09:43:11;;;;;;;;;;;20.40;99.90;;;;;;5015850;28;19914;-80
2024/02/25 09:45:40;;;;;;;;;;;19.00;99.90;;;;;;5018220;28;19913;-81
2024/02/25 09:48:08;;;;;;;;;;;17.60;99.90;;;;;;5013468;28;19924;-79
2024/02/25 09:50:34;;;;;;;;;;;16.50;99.90;;;;;;5023495;28;19920;-80
2024/02/25 09:53:00;;;;;;;;;;;15.70;99.90;;;;;;5019118;28;19913;-79
2024/02/25 09:55:26;;;;;;;;;;;15.20;99.90;;;;;;5015577;28;19917;-80
2024/02/25 09:57:51;;;;;;;;;;;14.90;99.90;;;;;;5000047;28;19913;-80
2024/02/25 10:00:17;;;;;;;;;;;14.90;99.90;;;;;;5009344;28;20299;-79
2024/02/25 10:02:43;;;;;;;;;;;15.00;99.90;;;;;;5013238;28;19957;-79
2024/02/25 10:05:12;;;;;;;;;;;14.90;99.90;;;;;;5005195;28;19925;-80
2024/02/25 10:07:37;;;;;;;;;;;14.60;99.90;;;;;;5015515;28;22169;-79
2024/02/25 10:10:03;;;;;;;;;;;14.40;99.90;;;;;;5016229;28;20020;-80
2024/02/25 10:12:29;;;;;;;;;;;14.30;99.90;;;;;;5015638;28;20402;-80
2024/02/25 10:14:54;;;;;;;;;;;14.30;99.90;;;;;;5011200;28;20387;-79
2024/02/25 10:17:24;;;;;;;;;;;14.30;99.90;;;;;;5013059;28;20415;-81
2024/02/25 10:19:53;;;;;;;;;;;14.50;99.90;;;;;;5014655;28;19924;-80
2024/02/25 10:22:19;;;;;;;;;;;15.10;99.90;;;;;;5013829;28;19920;-80
2024/02/25 10:24:44;;;;;;;;;;;15.60;99.90;;;;;;5005058;28;19917;-81
2024/02/25 10:27:13;;;;;;;;;;;16.20;99.90;;;;;;5004214;28;19929;-81
2024/02/25 10:30:06;;;;;;;;;;;17.00;99.90;;;;;;5020378;28;19920;-81
2024/02/25 10:32:35;;;;;;;;;;;18.60;99.90;;;;;;5017586;28;19913;-80
2024/02/25 10:35:01;;;;;;;;;;;18.40;99.90;;;;;;5019776;28;19923;-81
2024/02/25 10:37:27;;;;;;;;;;;18.10;99.90;;;;;;5012258;28;20342;-80
2024/02/25 10:39:54;;;;;;;;;;;18.00;99.90;;;;;;5028833;28;19919;-81
2024/02/25 10:42:24;;;;;;;;;;;18.30;99.90;;;;;;5031586;28;19967;-82
2024/02/25 10:44:54;;;;;;;;;;;18.50;99.90;;;;;;5028643;28;19917;-80
2024/02/25 10:47:20;;;;;;;;;;;19.90;99.90;;;;;;5023530;28;19920;-80
2024/02/25 10:49:46;;;;;;;;;;;19.90;99.90;;;;;;5030700;28;19913;-80
2024/02/25 10:52:12;;;;;;;;;;;19.30;99.90;;;;;;5027927;28;20327;-80
2024/02/25 10:54:39;;;;;;;;;;;18.60;99.90;;;;;;5026506;28;20399;-81
2024/02/25 10:57:05;;;;;;;;;;;18.90;99.90;;;;;;5016235;28;20322;-80
2024/02/25 10:59:31;;;;;;;;;;;20.70;99.90;;;;;;5024364;28;19914;-81
2024/02/25 11:01:59;;;;;;;;;;;21.60;99.90;;;;;;5028684;28;19940;-81
2024/02/25 11:04:25;;;;;;;;;;;22.40;99.90;;;;;;5029991;28;20547;-80
2024/02/25 11:06:54;;;;;;;;;;;23.10;99.90;;;;;;5029271;28;20007;-81
2024/02/25 11:09:22;;;;;;;;;;;23.60;99.90;;;;;;5026748;28;20330;-81
2024/02/25 11:11:48;;;;;;;;;;;24.10;99.90;;;;;;5023111;28;19913;-82
2024/02/25 11:14:17;;;;;;;;;;;23.10;99.90;;;;;;5020572;28;19917;-80
2024/02/25 11:16:45;;;;;;;;;;;22.00;99.90;;;;;;5026433;28;19975;-81
2024/02/25 11:19:15;;;;;;;;;;;21.00;99.90;;;;;;5021970;28;19920;-81
2024/02/25 11:21:41;;;;;;;;;;;22.10;99.90;;;;;;5004905;28;19921;-80
2024/02/25 11:24:12;;;;;;;;;;;22.10;99.90;;;;;;5029945;28;19917;-79
2024/02/25 11:26:38;;;;;;;;;;;22.20;99.90;;;;;;5005800;28;20374;-81
2024/02/25 11:29:21;;;;;;;;;;;22.30;99.90;;;;;;5029740;28;20402;-80
2024/02/25 11:31:56;;;;;;;;;;;21.60;99.90;;;;;;5023831;28;19998;-80
2024/02/25 11:34:25;;;;;;;;;;;20.70;99.90;;;;;;5027248;28;19921;-81
2024/02/25 11:36:54;;;;;;;;;;;20.20;99.90;;;;;;5027842;28;19928;-80
2024/02/25 11:39:21;;;;;;;;;;;20.90;99.90;;;;;;5028040;28;20369;-81
2024/02/25 11:41:48;;;;;;;;;;;21.80;99.90;;;;;;5026094;28;19917;-81
2024/02/25 11:44:13;;;;;;;;;;;21.60;99.90;;;;;;5027557;28;20397;-81
2024/02/25 11:46:39;;;;;;;;;;;22.10;99.90;;;;;;5029122;28;19959;-80
2024/02/25 11:49:04;;;;;;;;;;;21.80;99.90;;;;;;5031926;28;19917;-81
2024/02/25 11:51:30;;;;;;;;;;;22.10;99.90;;;;;;5023519;28;20524;-81
2024/02/25 11:53:56;;;;;;;;;;;22.00;99.90;;;;;;5035270;28;19933;-81
2024/02/25 11:56:21;;;;;;;;;;;21.70;99.90;;;;;;5015974;28;20326;-81
2024/02/25 11:58:47;;;;;;;;;;;21.20;99.90;;;;;;5026992;28;19913;-81
2024/02/25 12:01:14;;;;;;;;;;;21.00;99.90;;;;;;5034509;28;19980;-80
2024/02/25 12:03:39;;;;;;;;;;;20.50;99.90;;;;;;5026262;28;19924;-80
2024/02/25 12:06:05;;;;;;;;;;;20.00;99.90;;;;;;5026115;28;19917;-80
2024/02/25 12:08:31;;;;;;;;;;;19.50;99.90;;;;;;5026129;28;19917;-80
2024/02/25 12:11:00;;;;;;;;;;;19.00;99.90;;;;;;5023784;28;20368;-81
2024/02/25 12:13:26;;;;;;;;;;;18.90;99.90;;;;;;5009063;28;19924;-80
2024/02/25 12:15:51;;;;;;;;;;;18.70;99.90;;;;;;5024970;28;19918;-81
2024/02/25 12:18:18;;;;;;;;;;;18.40;99.90;;;;;;5021185;28;19940;-81
2024/02/25 12:20:44;;;;;;;;;;;17.80;99.90;;;;;;5030675;28;19936;-80
2024/02/25 12:23:09;;;;;;;;;;;17.30;99.90;;;;;;5029570;28;19920;-80
2024/02/25 12:25:35;;;;;;;;;;;16.70;99.90;;;;;;5002902;28;19928;-80
2024/02/25 12:28:11;;;;;;;;;;;16.00;99.90;;;;;;5023758;28;19921;-80
2024/02/25 12:30:38;;;;;;;;;;;15.30;99.90;;;;;;5026742;28;19924;-80
2024/02/25 12:33:10;;;;;;;;;;;14.80;99.90;;;;;;5026435;28;19913;-80
2024/02/25 12:35:37;;;;;;;;;;;14.50;99.90;;;;;;5010110;28;19921;-79
2024/02/25 12:38:03;;;;;;;;;;;14.40;99.90;;;;;;5021486;28;19922;-80
2024/02/25 12:40:30;;;;;;;;;;;14.60;99.90;;;;;;5017446;28;19922;-80
2024/02/25 12:42:57;;;;;;;;;;;15.10;99.90;;;;;;5016902;28;21678;-81
2024/02/25 12:45:23;;;;;;;;;;;16.00;99.90;;;;;;5023679;28;20441;-80
2024/02/25 12:47:48;;;;;;;;;;;16.50;99.90;;;;;;5018745;28;19913;-80
2024/02/25 12:50:14;;;;;;;;;;;16.60;99.90;;;;;;4999473;28;19920;-80
2024/02/25 12:52:42;;;;;;;;;;;16.60;99.90;;;;;;4999868;28;20280;-81
2024/02/25 12:55:08;;;;;;;;;;;17.50;99.90;;;;;;5016914;28;19913;-79
2024/02/25 12:57:35;;;;;;;;;;;18.40;99.90;;;;;;5000966;28;20307;-82
2024/02/25 13:00:01;;;;;;;;;;;19.80;99.90;;;;;;5017266;28;19918;-81
2024/02/25 13:02:27;;;;;;;;;;;20.50;99.90;;;;;;5019967;28;19967;-82
2024/02/25 13:04:52;;;;;;;;;;;20.50;99.90;;;;;;5025811;28;19924;-79
2024/02/25 13:07:17;;;;;;;;;;;20.10;99.90;;;;;;5019635;28;19914;-81
2024/02/25 13:09:43;;;;;;;;;;;20.70;99.90;;;;;;5024804;28;19913;-81
2024/02/25 13:12:09;;;;;;;;;;;21.20;99.90;;;;;;5022949;28;19920;-81
2024/02/25 13:14:35;;;;;;;;;;;20.90;99.90;;;;;;5019896;28;19924;-82
2024/02/25 13:17:00;;;;;;;;;;;20.00;99.90;;;;;;5022101;28;19917;-80
2024/02/25 13:19:26;;;;;;;;;;;19.10;99.90;;;;;;5020696;28;19913;-80
2024/02/25 13:21:51;;;;;;;;;;;18.30;99.90;;;;;;5021843;28;19939;-81
2024/02/25 13:24:17;;;;;;;;;;;17.50;99.90;;;;;;5002520;28;19987;-81
2024/02/25 13:26:44;;;;;;;;;;;16.70;99.90;;;;;;5022909;28;20290;-80
2024/02/25 13:29:10;;;;;;;;;;;16.00;99.90;;;;;;5010348;28;19998;-80
2024/02/25 13:31:36;;;;;;;;;;;15.10;99.90;;;;;;5033724;28;19913;-82
2024/02/25 13:34:01;;;;;;;;;;;14.40;99.90;;;;;;5034528;28;19917;-82
2024/02/25 13:36:32;;;;;;;;;;;13.80;99.90;;;;;;5033642;28;20441;-82
2024/02/25 13:38:58;;;;;;;;;;;13.40;99.90;;;;;;5037578;28;20039;-82
2024/02/25 13:41:23;;;;;;;;;;;13.30;99.90;;;;;;5010290;28;19917;-81
2024/02/25 13:43:51;;;;;;;;;;;13.70;99.90;;;;;;5027266;28;20305;-81
2024/02/25 13:46:16;;;;;;;;;;;14.20;99.90;;;;;;5036822;28;20054;-82
2024/02/25 13:48:43;;;;;;;;;;;14.70;99.90;;;;;;5034923;28;19920;-81
2024/02/25 13:51:09;;;;;;;;;;;14.80;99.90;;;;;;5008130;28;19956;-82
2024/02/25 13:53:34;;;;;;;;;;;14.80;99.90;;;;;;5024868;28;20393;-82
2024/02/25 13:56:00;;;;;;;;;;;15.00;99.90;;;;;;5025736;28;19913;-81
2024/02/25 13:58:25;;;;;;;;;;;15.70;99.90;;;;;;5023552;28;20628;-81
2024/02/25 14:00:51;;;;;;;;;;;15.80;99.90;;;;;;5011862;28;19921;-81
2024/02/25 14:03:17;;;;;;;;;;;16.30;99.90;;;;;;5029687;28;20020;-81
2024/02/25 14:05:42;;;;;;;;;;;16.50;99.90;;;;;;5011719;28;19918;-82
2024/02/25 14:08:08;;;;;;;;;;;16.30;99.90;;;;;;5020200;28;20417;-81
2024/02/25 14:10:33;;;;;;;;;;;16.00;99.90;;;;;;5030188;28;19936;-81
2024/02/25 14:12:59;;;;;;;;;;;15.60;99.90;;;;;;5028767;28;19955;-81
2024/02/25 14:15:25;;;;;;;;;;;15.20;99.90;;;;;;5020001;28;20537;-80
2024/02/25 14:17:55;;;;;;;;;;;14.90;99.90;;;;;;5027661;28;19917;-80
2024/02/25 14:20:22;;;;;;;;;;;14.80;99.90;;;;;;5024939;28;20006;-81